首页
METAR-TAF:

METAR-TAF

机场 :

阿尔达比勒, 伊朗

纬度: 38-19-35N, 经度: 048-25-28E, 海拔: 1315米

当前天气观测

该预报发布于3小时和46分钟前的17:00 UTC
风速16节,风向东转东北
温度 15°C
湿度 100%
气压 1017 hPa
能見度: 3000
多云层高于400英尺
少量云层高于4000英尺, 积雨云.
小毛毛雨, 部分雾

METAR: OITL 031700Z 07016KT 7000 3000SE -DZ PRFG BKN004 FEW040CB 15/15 Q1017

时间: 01:16 (20:46 UTC)


TAF: 丢失

超过4000个机场的气象观测和天气预报(METAR&TAF报告)。

可查询的气象台以黄色和红色小点在地图上表示。

将鼠标移到小点上方,可查看气象台名称。

然后点击查看天气观测和预报。

如需切换地图:点击带黑十字的绿色按钮放大地图;点击带横线的绿色按钮缩小地图;或者点击绿色箭头查看邻近地区的地图。


METAR-TAF: